createdAt,value
2019-04-05T00:00:54.525Z,96.04
2019-04-05T00:03:22.863Z,96.15
2019-04-05T00:05:51.194Z,96.16
2019-04-05T00:08:19.530Z,96.20
2019-04-05T00:10:47.861Z,96.19
2019-04-05T00:13:16.202Z,96.22
2019-04-05T00:15:45.000Z,96.28
2019-04-05T00:18:13.357Z,96.31
2019-04-05T00:20:41.679Z,96.32
2019-04-05T00:23:10.295Z,96.30
2019-04-05T00:25:39.083Z,96.36
2019-04-05T00:28:07.411Z,96.40
2019-04-05T00:30:35.740Z,96.49
2019-04-05T00:33:04.044Z,96.50
2019-04-05T00:35:32.381Z,96.51
2019-04-05T00:38:00.702Z,96.41
2019-04-05T00:40:29.466Z,96.42
2019-04-05T00:42:57.775Z,96.42
2019-04-05T00:45:28.429Z,96.46
2019-04-05T00:47:56.169Z,96.55
2019-04-05T00:50:24.815Z,96.53
2019-04-05T00:52:53.166Z,96.54
2019-04-05T00:55:21.471Z,96.57
2019-04-05T00:57:49.966Z,96.55
2019-04-05T01:00:18.346Z,96.49
2019-04-05T01:02:46.930Z,96.43
2019-04-05T01:05:15.706Z,96.46
2019-04-05T01:07:44.218Z,96.47
2019-04-05T01:10:13.573Z,96.46
2019-04-05T01:12:42.479Z,96.44
2019-04-05T01:15:12.288Z,96.48
2019-04-05T01:17:40.782Z,96.57
2019-04-05T01:20:11.286Z,96.55
2019-04-05T01:22:41.439Z,96.53
2019-04-05T01:25:09.760Z,96.53
2019-04-05T01:27:40.101Z,96.53
2019-04-05T01:30:11.619Z,96.44
2019-04-05T01:32:40.357Z,96.27
2019-04-05T01:35:09.147Z,96.21
2019-04-05T01:37:38.353Z,96.15
2019-04-05T01:40:08.011Z,96.17
2019-04-05T01:42:37.483Z,96.16
2019-04-05T01:45:07.914Z,96.16
2019-04-05T01:47:36.791Z,96.22
2019-04-05T01:50:07.102Z,96.23
2019-04-05T01:52:35.779Z,96.29
2019-04-05T01:55:05.221Z,96.34
2019-04-05T01:57:33.568Z,96.37
2019-04-05T02:00:02.180Z,96.37
2019-04-05T02:02:30.593Z,96.34
2019-04-05T02:04:58.947Z,96.34
2019-04-05T02:07:27.277Z,96.36
2019-04-05T02:09:55.632Z,96.35
2019-04-05T02:12:24.372Z,96.37
2019-04-05T02:14:52.801Z,96.37
2019-04-05T02:17:21.114Z,96.38
2019-04-05T02:19:49.455Z,96.40
2019-04-05T02:22:17.786Z,96.37
2019-04-05T02:24:46.131Z,96.37
2019-04-05T02:27:14.732Z,96.42
2019-04-05T02:29:43.517Z,96.51
2019-04-05T02:32:11.818Z,96.55
2019-04-05T02:34:40.166Z,96.58
2019-04-05T02:37:08.481Z,96.55
2019-04-05T02:39:36.809Z,96.55
2019-04-05T02:42:05.569Z,96.57
2019-04-05T02:44:34.555Z,96.49
2019-04-05T02:47:03.660Z,96.37
2019-04-05T02:49:32.347Z,96.21
2019-04-05T02:52:01.885Z,96.17
2019-04-05T02:54:30.655Z,96.06
2019-04-05T02:56:59.573Z,96.18
2019-04-05T02:59:28.029Z,96.18
2019-04-05T03:01:56.702Z,96.04
2019-04-05T03:04:25.097Z,95.93
2019-04-05T03:06:53.708Z,95.77
2019-04-05T03:09:22.908Z,95.73
2019-04-05T03:11:51.482Z,95.83
2019-04-05T03:14:20.668Z,95.73
2019-04-05T03:16:50.976Z,95.79
2019-04-05T03:19:21.929Z,95.91
2019-04-05T03:21:52.217Z,95.97
2019-04-05T03:24:23.229Z,95.99
2019-04-05T03:26:57.570Z,95.88
2019-04-05T03:29:26.134Z,95.78
2019-04-05T03:31:54.646Z,95.61
2019-04-05T03:34:23.203Z,95.58
2019-04-05T03:36:52.420Z,95.59
2019-04-05T03:39:21.870Z,95.59
2019-04-05T03:41:50.310Z,95.69
2019-04-05T03:44:22.675Z,95.78
2019-04-05T03:46:56.527Z,95.75
2019-04-05T03:49:18.876Z,95.68
2019-04-05T03:51:47.275Z,95.70
2019-04-05T03:54:15.738Z,95.73
2019-04-05T03:56:44.217Z,95.68
2019-04-05T03:59:12.538Z,95.65
2019-04-05T04:01:40.906Z,95.57
2019-04-05T04:04:09.201Z,95.59
2019-04-05T04:06:37.507Z,95.72
2019-04-05T04:09:06.492Z,95.46
2019-04-05T04:11:34.849Z,95.33
2019-04-05T04:14:03.240Z,95.26
2019-04-05T04:16:31.888Z,95.41
2019-04-05T04:19:00.762Z,95.50
2019-04-05T04:21:37.330Z,95.43
2019-04-05T04:24:05.916Z,95.29
2019-04-05T04:26:34.667Z,95.32
2019-04-05T04:29:03.617Z,95.38
2019-04-05T04:31:31.923Z,95.41
2019-04-05T04:34:00.605Z,95.38
2019-04-05T04:36:29.274Z,95.27
2019-04-05T04:38:57.783Z,95.19
2019-04-05T04:41:26.171Z,95.23
2019-04-05T04:43:54.833Z,95.17
2019-04-05T04:46:23.153Z,95.08
2019-04-05T04:48:51.446Z,95.05
2019-04-05T04:51:20.017Z,95.04
2019-04-05T04:53:48.686Z,95.06
2019-04-05T04:56:17.069Z,94.90
2019-04-05T04:58:46.400Z,94.82
2019-04-05T05:01:14.933Z,94.89
2019-04-05T05:03:43.239Z,94.92
2019-04-05T05:06:11.710Z,94.87
2019-04-05T05:08:40.223Z,94.79
2019-04-05T05:11:14.787Z,94.84
2019-04-05T05:13:39.090Z,94.68
2019-04-05T05:16:07.670Z,94.68
2019-04-05T05:18:36.053Z,94.65
2019-04-05T05:21:04.476Z,94.77
2019-04-05T05:23:33.584Z,94.88
2019-04-05T05:26:02.064Z,94.98
2019-04-05T05:28:32.829Z,94.93
2019-04-05T05:31:00.706Z,94.84
2019-04-05T05:33:29.082Z,94.81
2019-04-05T05:35:57.371Z,94.85
2019-04-05T05:38:25.793Z,95.00
2019-04-05T05:40:54.190Z,95.08
2019-04-05T05:43:23.994Z,95.10
2019-04-05T05:45:52.572Z,95.08
2019-04-05T05:48:21.192Z,95.08
2019-04-05T05:50:49.522Z,94.94
2019-04-05T05:53:17.837Z,94.82
2019-04-05T05:55:46.135Z,94.74
2019-04-05T05:58:14.438Z,94.66
2019-04-05T06:00:42.753Z,94.62
2019-04-05T06:03:12.083Z,94.72
2019-04-05T06:05:40.433Z,94.82
2019-04-05T06:08:08.730Z,94.90
2019-04-05T06:10:37.057Z,94.95
2019-04-05T06:13:07.153Z,94.90
2019-04-05T06:15:37.485Z,94.86
2019-04-05T06:18:05.465Z,94.77
2019-04-05T06:20:33.796Z,94.64
2019-04-05T06:23:02.090Z,94.68
2019-04-05T06:25:30.441Z,94.53
2019-04-05T06:27:59.878Z,94.53
2019-04-05T06:30:28.934Z,94.52
2019-04-05T06:32:57.264Z,94.32
2019-04-05T06:35:25.576Z,93.98
2019-04-05T06:37:54.216Z,93.82
2019-04-05T06:40:22.542Z,93.80
2019-04-05T06:42:50.873Z,93.67
2019-04-05T06:45:19.177Z,93.60
2019-04-05T06:47:47.835Z,93.54
2019-04-05T06:50:16.145Z,93.50
2019-04-05T06:52:44.713Z,93.44
2019-04-05T06:55:13.036Z,93.28
2019-04-05T06:57:41.573Z,93.23
2019-04-05T07:00:10.050Z,92.95
2019-04-05T07:02:38.418Z,93.03
2019-04-05T07:05:07.561Z,92.96
2019-04-05T07:07:36.277Z,92.67
2019-04-05T07:10:06.242Z,92.43
2019-04-05T07:12:34.559Z,92.50
2019-04-05T07:15:03.019Z,92.32
2019-04-05T07:17:31.333Z,92.46
2019-04-05T07:19:59.625Z,92.52
2019-04-05T07:22:38.519Z,92.34
2019-04-05T07:24:57.953Z,92.27
2019-04-05T07:27:26.317Z,91.81
2019-04-05T07:29:54.621Z,91.44
2019-04-05T07:32:22.949Z,91.28
2019-04-05T07:34:51.236Z,91.30
2019-04-05T07:37:19.546Z,91.08
2019-04-05T07:39:47.863Z,90.93
2019-04-05T07:42:16.201Z,90.05
2019-04-05T07:44:44.507Z,89.56
2019-04-05T07:47:12.801Z,89.04
2019-04-05T07:49:41.255Z,89.45
2019-04-05T07:52:09.552Z,89.14
2019-04-05T07:54:37.880Z,88.99
2019-04-05T07:57:06.236Z,88.99
2019-04-05T07:59:34.677Z,88.80
2019-04-05T08:02:03.281Z,87.88
2019-04-05T08:04:31.596Z,88.17
2019-04-05T08:07:01.793Z,88.02
2019-04-05T08:09:31.180Z,87.10
2019-04-05T08:11:59.862Z,87.28
2019-04-05T08:14:28.657Z,87.09
2019-04-05T08:16:57.029Z,87.09
2019-04-05T08:19:25.325Z,87.08
2019-04-05T08:21:53.639Z,87.24
2019-04-05T08:24:22.264Z,87.11
2019-04-05T08:26:50.610Z,87.06
2019-04-05T08:29:18.990Z,87.15
2019-04-05T08:31:47.339Z,86.78
2019-04-05T08:34:15.623Z,86.98
2019-04-05T08:36:44.263Z,86.76
2019-04-05T08:39:12.796Z,86.23
2019-04-05T08:41:41.173Z,86.07
2019-04-05T08:44:09.627Z,85.44
2019-04-05T08:46:37.937Z,85.27
2019-04-05T08:49:10.820Z,84.85
2019-04-05T08:51:36.899Z,83.91
2019-04-05T08:54:05.348Z,84.01
2019-04-05T08:56:33.810Z,83.47
2019-04-05T08:59:02.115Z,83.05
2019-04-05T09:01:30.715Z,82.97
2019-04-05T09:03:59.103Z,82.96
2019-04-05T09:06:27.396Z,82.48
2019-04-05T09:08:55.727Z,82.91
2019-04-05T09:11:24.334Z,83.06
2019-04-05T09:13:52.641Z,83.37
2019-04-05T09:16:20.940Z,83.32
2019-04-05T09:18:49.742Z,82.73
2019-04-05T09:21:18.354Z,82.64
2019-04-05T09:23:46.932Z,83.04
2019-04-05T09:26:15.509Z,82.93
2019-04-05T09:28:43.812Z,82.91
2019-04-05T09:31:12.100Z,82.54
2019-04-05T09:33:40.411Z,82.43
2019-04-05T09:36:08.712Z,82.51
2019-04-05T09:38:37.025Z,82.44
2019-04-05T09:41:05.889Z,81.57
2019-04-05T09:43:34.679Z,81.71
2019-04-05T09:46:02.993Z,81.92
2019-04-05T09:48:31.381Z,82.30
2019-04-05T09:50:59.706Z,81.58
2019-04-05T09:53:28.000Z,81.78
2019-04-05T09:55:56.597Z,82.13
2019-04-05T09:58:24.908Z,82.61
2019-04-05T10:00:53.256Z,82.56
2019-04-05T10:03:21.672Z,82.67
2019-04-05T10:05:49.981Z,82.67
2019-04-05T10:08:18.479Z,82.54
2019-04-05T10:10:46.786Z,82.64
2019-04-05T10:13:15.353Z,82.51
2019-04-05T10:15:44.117Z,82.23
2019-04-05T10:18:12.422Z,82.15
2019-04-05T10:20:40.718Z,81.58
2019-04-05T10:23:09.013Z,81.42
2019-04-05T10:25:37.336Z,80.84
2019-04-05T10:28:05.789Z,80.77
2019-04-05T10:30:34.092Z,80.92
2019-04-05T10:33:02.400Z,81.24
2019-04-05T10:35:31.048Z,81.51
2019-04-05T10:37:59.356Z,81.37
2019-04-05T10:40:27.687Z,81.37
2019-04-05T10:42:55.999Z,81.45
2019-04-05T10:45:24.496Z,81.64
2019-04-05T10:47:53.164Z,81.60
2019-04-05T10:50:21.653Z,81.61
2019-04-05T10:52:49.938Z,81.69
2019-04-05T10:55:18.305Z,81.75
2019-04-05T10:57:46.722Z,81.57
2019-04-05T11:00:16.429Z,81.39
2019-04-05T11:02:44.813Z,81.07
2019-04-05T11:05:13.672Z,80.98
2019-04-05T11:07:41.978Z,80.88
2019-04-05T11:10:10.599Z,80.99
2019-04-05T11:12:38.922Z,81.04
2019-04-05T11:15:08.386Z,80.83
2019-04-05T11:17:36.685Z,80.76
2019-04-05T11:20:21.145Z,80.84
2019-04-05T11:22:40.357Z,80.85
2019-04-05T11:25:10.669Z,80.73
2019-04-05T11:27:38.992Z,80.66
2019-04-05T11:30:09.755Z,80.98
2019-04-05T11:32:38.275Z,81.28
2019-04-05T11:35:07.757Z,80.97
2019-04-05T11:37:39.376Z,80.34
2019-04-05T11:40:07.989Z,80.75
2019-04-05T11:42:37.846Z,81.01
2019-04-05T11:45:07.971Z,81.21
2019-04-05T11:47:38.359Z,80.91
2019-04-05T11:50:09.739Z,80.84
2019-04-05T11:52:38.120Z,80.47
2019-04-05T11:55:07.999Z,80.13
2019-04-05T11:57:36.440Z,80.14
2019-04-05T12:00:13.932Z,80.02
2019-04-05T12:02:52.809Z,80.62
2019-04-05T12:05:22.874Z,80.67
2019-04-05T12:07:51.456Z,80.58
2019-04-05T12:10:19.866Z,80.33
2019-04-05T12:12:48.227Z,80.47
2019-04-05T12:15:17.181Z,80.32
2019-04-05T12:17:45.508Z,80.40
2019-04-05T12:20:14.395Z,80.86
2019-04-05T12:22:43.038Z,80.83
2019-04-05T12:25:11.401Z,81.12
2019-04-05T12:27:40.005Z,81.26
2019-04-05T12:30:10.281Z,81.53
2019-04-05T12:32:41.532Z,81.23
2019-04-05T12:35:09.140Z,81.22
2019-04-05T12:37:49.432Z,81.19
2019-04-05T12:40:10.379Z,81.34
2019-04-05T12:42:37.820Z,81.68
2019-04-05T12:45:07.280Z,81.38
2019-04-05T12:47:35.936Z,81.11
2019-04-05T12:50:08.282Z,81.18
2019-04-05T12:52:36.624Z,80.96
2019-04-05T12:55:06.186Z,80.86
2019-04-05T12:57:34.476Z,80.79
2019-04-05T13:00:03.424Z,80.72
2019-04-05T13:02:33.947Z,80.83
2019-04-05T13:05:01.766Z,80.85
2019-04-05T13:07:30.066Z,81.00
2019-04-05T13:09:58.387Z,80.84
2019-04-05T13:12:27.136Z,80.65
2019-04-05T13:15:05.315Z,80.72
2019-04-05T13:17:25.491Z,80.43
2019-04-05T13:19:53.809Z,80.15
2019-04-05T13:22:23.518Z,80.47
2019-04-05T13:24:51.989Z,80.55
2019-04-05T13:27:20.277Z,80.79
2019-04-05T13:29:49.197Z,80.71
2019-04-05T13:32:21.498Z,80.76
2019-04-05T13:34:48.771Z,80.46
2019-04-05T13:37:20.358Z,80.74
2019-04-05T13:39:47.100Z,80.76
2019-04-05T13:42:15.420Z,81.23
2019-04-05T13:44:43.716Z,81.13
2019-04-05T13:47:12.084Z,81.23
2019-04-05T13:49:40.682Z,81.16
2019-04-05T13:52:12.014Z,81.37
2019-04-05T13:54:40.346Z,81.33
2019-04-05T13:57:11.403Z,81.47
2019-04-05T13:59:39.285Z,81.48
2019-04-05T14:02:07.659Z,81.66
2019-04-05T14:04:36.264Z,81.57
2019-04-05T14:07:04.649Z,82.19
2019-04-05T14:09:33.067Z,82.20
2019-04-05T14:12:01.753Z,82.43
2019-04-05T14:14:30.067Z,82.73
2019-04-05T14:16:58.358Z,82.62
2019-04-05T14:19:28.893Z,82.62
2019-04-05T14:22:07.817Z,82.69
2019-04-05T14:24:26.782Z,82.88
2019-04-05T14:26:55.081Z,82.49
2019-04-05T14:29:23.405Z,82.88
2019-04-05T14:31:51.690Z,83.11
2019-04-05T14:34:23.442Z,83.46
2019-04-05T14:36:51.955Z,83.68
2019-04-05T14:39:20.340Z,83.80
2019-04-05T14:41:48.662Z,83.95
2019-04-05T14:44:16.969Z,84.27
2019-04-05T14:46:45.761Z,84.50
2019-04-05T14:49:14.366Z,84.45
2019-04-05T14:51:52.649Z,84.31
2019-04-05T14:54:12.741Z,84.65
2019-04-05T14:56:41.060Z,84.65
2019-04-05T14:59:09.353Z,84.69
2019-04-05T15:01:37.678Z,84.85
2019-04-05T15:04:05.977Z,84.98
2019-04-05T15:06:34.536Z,85.13
2019-04-05T15:09:03.198Z,85.02
2019-04-05T15:11:31.507Z,85.18
2019-04-05T15:13:59.917Z,85.31
2019-04-05T15:16:28.566Z,85.46
2019-04-05T15:18:56.856Z,85.30
2019-04-05T15:21:25.416Z,85.49
2019-04-05T15:23:53.753Z,85.67
2019-04-05T15:26:22.060Z,86.03
2019-04-05T15:28:54.619Z,86.45
2019-04-05T15:31:20.987Z,86.26
2019-04-05T15:33:49.285Z,86.48
2019-04-05T15:36:17.584Z,86.76
2019-04-05T15:38:45.905Z,86.90
2019-04-05T15:41:14.444Z,86.64
2019-04-05T15:43:42.756Z,86.57
2019-04-05T15:46:11.093Z,86.85
2019-04-05T15:48:39.428Z,87.19
2019-04-05T15:51:07.694Z,87.34
2019-04-05T15:53:36.035Z,87.29
2019-04-05T15:56:04.890Z,87.57
2019-04-05T15:58:34.088Z,87.91
2019-04-05T16:01:04.860Z,87.74
2019-04-05T16:03:33.589Z,87.99
2019-04-05T16:06:02.167Z,88.05
2019-04-05T16:08:30.879Z,88.13
2019-04-05T16:10:59.218Z,88.07
2019-04-05T16:13:27.822Z,88.29
2019-04-05T16:15:56.130Z,88.44
2019-04-05T16:18:24.499Z,88.29
2019-04-05T16:20:52.817Z,88.12
2019-04-05T16:23:21.117Z,88.05
2019-04-05T16:25:49.425Z,88.53
2019-04-05T16:28:17.758Z,88.69
2019-04-05T16:30:46.508Z,88.71
2019-04-05T16:33:14.790Z,88.95
2019-04-05T16:35:43.332Z,89.11
2019-04-05T16:38:11.648Z,89.35
2019-04-05T16:40:39.945Z,89.64
2019-04-05T16:43:08.257Z,89.66
2019-04-05T16:45:38.570Z,89.83
2019-04-05T16:48:06.598Z,89.70
2019-04-05T16:50:35.138Z,89.80
2019-04-05T16:53:03.455Z,89.78
2019-04-05T16:55:32.110Z,89.73
2019-04-05T16:58:00.413Z,89.85
2019-04-05T17:00:28.820Z,89.82
2019-04-05T17:02:57.093Z,89.91
2019-04-05T17:05:25.380Z,90.21
2019-04-05T17:07:53.758Z,90.39
2019-04-05T17:10:22.044Z,90.56
2019-04-05T17:12:50.353Z,90.73
2019-04-05T17:15:18.639Z,90.81
2019-04-05T17:17:46.964Z,90.74
2019-04-05T17:20:15.695Z,90.94
2019-04-05T17:22:57.127Z,91.05
2019-04-05T17:25:15.096Z,91.07
2019-04-05T17:27:43.424Z,91.29
2019-04-05T17:30:11.703Z,91.41
2019-04-05T17:32:40.021Z,91.60
2019-04-05T17:35:08.400Z,91.74
2019-04-05T17:37:36.711Z,91.65
2019-04-05T17:40:07.018Z,91.80
2019-04-05T17:42:35.313Z,91.61
2019-04-05T17:45:05.458Z,91.55
2019-04-05T17:47:33.826Z,91.59
2019-04-05T17:50:02.428Z,91.94
2019-04-05T17:52:30.721Z,92.21
2019-04-05T17:54:59.281Z,92.31
2019-04-05T17:57:27.565Z,92.53
2019-04-05T17:59:56.053Z,92.72
2019-04-05T18:02:24.337Z,92.97
2019-04-05T18:04:52.622Z,92.93
2019-04-05T18:07:21.227Z,92.76
2019-04-05T18:09:49.522Z,92.87
2019-04-05T18:12:17.822Z,93.13
2019-04-05T18:14:46.120Z,93.68
2019-04-05T18:17:14.702Z,93.61
2019-04-05T18:19:43.001Z,93.78
2019-04-05T18:22:11.312Z,94.13
2019-04-05T18:24:39.589Z,94.07
2019-04-05T18:27:07.890Z,94.36
2019-04-05T18:29:36.178Z,94.40
2019-04-05T18:32:04.466Z,94.26
2019-04-05T18:34:33.211Z,94.15
2019-04-05T18:37:01.524Z,94.31
2019-04-05T18:39:29.836Z,94.38
2019-04-05T18:41:58.432Z,94.23
2019-04-05T18:44:26.767Z,94.35
2019-04-05T18:46:55.112Z,94.44
2019-04-05T18:49:23.783Z,94.28
2019-04-05T18:51:52.066Z,94.29
2019-04-05T18:54:20.375Z,94.59
2019-04-05T18:56:48.678Z,94.85
2019-04-05T18:59:17.019Z,95.27
2019-04-05T19:01:45.302Z,95.01
2019-04-05T19:04:13.664Z,95.13
2019-04-05T19:06:42.089Z,94.84
2019-04-05T19:09:11.847Z,94.87
2019-04-05T19:11:40.487Z,95.00
2019-04-05T19:14:08.827Z,94.87
2019-04-05T19:16:37.141Z,95.02
2019-04-05T19:19:05.436Z,94.90
2019-04-05T19:21:34.025Z,94.87
2019-04-05T19:24:02.666Z,94.71
2019-04-05T19:26:30.992Z,94.95
2019-04-05T19:28:59.947Z,95.01
2019-04-05T19:48:59.420Z,94.65
2019-04-05T19:51:27.713Z,94.58
2019-04-05T19:54:01.276Z,94.61
2019-04-05T19:56:26.384Z,94.66
2019-04-05T19:58:54.961Z,94.60
2019-04-05T20:01:23.264Z,94.61
2019-04-05T20:03:51.656Z,94.60
2019-04-05T20:06:19.958Z,94.63
2019-04-05T20:08:48.263Z,94.58
2019-04-05T20:11:18.034Z,94.25
2019-04-05T20:13:46.455Z,94.33
2019-04-05T20:16:14.994Z,94.16
2019-04-05T20:18:43.355Z,94.26
2019-04-05T20:21:11.678Z,94.18
2019-04-05T20:23:47.392Z,94.32
2019-04-05T20:26:10.021Z,94.43
2019-04-05T20:28:38.307Z,94.42
2019-04-05T20:31:06.626Z,94.39
2019-04-05T20:33:34.952Z,94.27
2019-04-05T20:36:03.266Z,94.25
2019-04-05T20:38:31.554Z,94.23
2019-04-05T20:40:59.860Z,94.26
2019-04-05T20:43:28.161Z,94.32
2019-04-05T20:45:56.832Z,94.38
2019-04-05T20:48:25.134Z,94.46
2019-04-05T20:50:53.450Z,94.46
2019-04-05T20:53:22.051Z,94.16
2019-04-05T20:55:50.365Z,94.19
2019-04-05T20:58:18.920Z,94.48
2019-04-05T21:00:47.247Z,94.46
2019-04-05T21:03:16.005Z,94.52
2019-04-05T21:05:44.430Z,94.14
2019-04-05T21:08:12.725Z,94.18
2019-04-05T21:10:41.037Z,94.15
2019-04-05T21:13:09.329Z,94.03
2019-04-05T21:15:37.636Z,93.92
2019-04-05T21:18:06.256Z,93.72
2019-04-05T21:20:34.977Z,93.86
2019-04-05T21:23:03.662Z,93.80
2019-04-05T21:25:31.999Z,93.87
2019-04-05T21:28:00.310Z,93.77
2019-04-05T21:30:28.658Z,93.60
2019-04-05T21:32:56.981Z,93.61
2019-04-05T21:35:25.338Z,93.74
2019-04-05T21:37:53.654Z,93.74
2019-04-05T21:40:21.997Z,93.57
2019-04-05T21:42:50.402Z,93.47
2019-04-05T21:45:18.793Z,93.40
2019-04-05T21:47:47.116Z,93.34
2019-04-05T21:50:15.513Z,93.34
2019-04-05T21:52:44.216Z,93.42
2019-04-05T21:55:13.073Z,93.46
2019-04-05T21:57:41.396Z,93.46
2019-04-05T22:00:33.314Z,93.56
2019-04-05T22:03:01.643Z,93.46
2019-04-05T22:05:29.971Z,93.74
2019-04-05T22:07:58.670Z,93.78
2019-04-05T22:10:27.175Z,93.96
2019-04-05T22:12:58.779Z,94.06
2019-04-05T22:15:26.634Z,94.12
2019-04-05T22:17:55.001Z,94.14
2019-04-05T22:20:23.390Z,93.88
2019-04-05T22:22:51.724Z,93.84
2019-04-05T22:25:20.353Z,93.93
2019-04-05T22:27:49.391Z,94.06
2019-04-05T22:30:18.014Z,93.88
2019-04-05T22:32:46.342Z,93.86
2019-04-05T22:35:15.013Z,93.78
2019-04-05T22:37:43.468Z,93.86
2019-04-05T22:40:12.168Z,94.05
2019-04-05T22:42:40.519Z,94.11
2019-04-05T22:45:09.024Z,93.97
2019-04-05T22:47:37.369Z,94.16
2019-04-05T22:50:06.498Z,94.04
2019-04-05T22:52:37.532Z,94.07
2019-04-05T22:55:11.560Z,94.13
2019-04-05T22:57:36.833Z,94.07
2019-04-05T23:00:07.064Z,94.23
2019-04-05T23:02:35.445Z,94.26
2019-04-05T23:05:04.530Z,94.57
2019-04-05T23:07:32.888Z,94.81
2019-04-05T23:10:01.523Z,94.47
2019-04-05T23:12:29.894Z,94.48
2019-04-05T23:14:58.223Z,94.63
2019-04-05T23:17:26.581Z,94.78
2019-04-05T23:19:54.908Z,94.89
2019-04-05T23:22:23.271Z,94.76
2019-04-05T23:24:51.639Z,94.89
2019-04-05T23:27:20.008Z,94.93
2019-04-05T23:29:48.334Z,95.06
2019-04-05T23:32:16.674Z,95.24
2019-04-05T23:34:45.014Z,94.97
2019-04-05T23:37:13.351Z,94.94
2019-04-05T23:39:41.746Z,94.98
2019-04-05T23:42:10.109Z,95.12
2019-04-05T23:44:38.721Z,95.13
2019-04-05T23:47:07.402Z,95.27
2019-04-05T23:49:35.758Z,95.17
2019-04-05T23:52:04.130Z,95.23
2019-04-05T23:54:32.475Z,95.28
2019-04-05T23:57:00.804Z,95.20
2019-04-05T23:59:29.160Z,95.15
